createdAt,value
2023-02-28T00:00:19.704Z,1.37
2023-02-28T00:00:52.266Z,1.37
2023-02-28T00:01:30.274Z,1.50
2023-02-28T00:02:02.835Z,1.60
2023-02-28T00:02:35.224Z,1.40
2023-02-28T00:03:10.140Z,1.10
2023-02-28T00:03:42.502Z,1.00
2023-02-28T00:04:14.802Z,1.30
2023-02-28T00:05:02.191Z,1.10
2023-02-28T00:05:35.104Z,1.20
2023-02-28T00:06:11.484Z,1.40
2023-02-28T00:06:44.122Z,1.30
2023-02-28T00:07:16.370Z,1.40
2023-02-28T00:07:52.448Z,1.60
2023-02-28T00:08:24.725Z,1.33
2023-02-28T00:08:59.895Z,1.27
2023-02-28T00:09:32.257Z,1.37
2023-02-28T00:10:05.669Z,1.30
2023-02-28T00:10:40.606Z,1.60
2023-02-28T00:11:14.495Z,1.40
2023-02-28T00:11:49.361Z,1.30
2023-02-28T00:12:21.601Z,1.50
2023-02-28T00:12:55.648Z,1.10
2023-02-28T00:13:28.054Z,1.50
2023-02-28T00:14:03.047Z,1.60
2023-02-28T00:14:35.311Z,1.20
2023-02-28T00:15:09.649Z,1.63
2023-02-28T00:15:45.230Z,1.30
2023-02-28T00:16:19.321Z,1.20
2023-02-28T00:16:54.260Z,1.30
2023-02-28T00:17:29.128Z,1.40
2023-02-28T00:18:01.659Z,1.30
2023-02-28T00:18:34.271Z,1.40
2023-02-28T00:19:09.169Z,1.50
2023-02-28T00:19:41.429Z,1.20
2023-02-28T00:20:14.489Z,1.40
2023-02-28T00:20:49.482Z,1.53
2023-02-28T00:21:22.133Z,1.30
2023-02-28T00:21:54.484Z,1.30
2023-02-28T00:22:29.446Z,1.00
2023-02-28T00:23:01.721Z,1.30
2023-02-28T00:23:34.724Z,1.20
2023-02-28T00:24:09.853Z,1.30
2023-02-28T00:24:42.104Z,1.60
2023-02-28T00:25:15.713Z,1.57
2023-02-28T00:25:50.679Z,1.60
2023-02-28T00:26:23.192Z,1.00
2023-02-28T00:26:55.656Z,1.40
2023-02-28T00:27:30.532Z,1.20
2023-02-28T00:28:02.788Z,1.33
2023-02-28T00:28:35.044Z,1.33
2023-02-28T00:29:09.900Z,1.30
2023-02-28T00:29:42.893Z,1.50
2023-02-28T00:30:18.475Z,1.10
2023-02-28T00:30:53.580Z,1.30
2023-02-28T00:31:26.123Z,1.40
2023-02-28T00:32:01.366Z,1.30
2023-02-28T00:32:36.284Z,1.10
2023-02-28T00:33:08.629Z,1.30
2023-02-28T00:33:40.920Z,1.67
2023-02-28T00:34:15.828Z,1.30
2023-02-28T00:34:48.084Z,1.40
2023-02-28T00:35:20.862Z,1.27
2023-02-28T00:35:55.768Z,1.30
2023-02-28T00:36:28.079Z,1.10
2023-02-28T00:37:00.324Z,1.57
2023-02-28T00:37:35.313Z,1.47
2023-02-28T00:38:07.665Z,1.57
2023-02-28T00:38:42.454Z,1.37
2023-02-28T00:39:17.311Z,1.13
2023-02-28T00:39:49.605Z,1.47
2023-02-28T00:40:22.138Z,1.17
2023-02-28T00:40:57.119Z,1.20
2023-02-28T00:41:30.955Z,1.53
2023-02-28T00:42:03.931Z,1.00
2023-02-28T00:42:39.000Z,1.40
2023-02-28T00:43:11.304Z,1.50
2023-02-28T00:43:46.203Z,1.10
2023-02-28T00:44:22.560Z,1.47
2023-02-28T00:44:55.317Z,1.30
2023-02-28T00:45:30.218Z,1.30
2023-02-28T00:46:03.692Z,1.43
2023-02-28T00:46:36.352Z,1.60
2023-02-28T00:47:13.861Z,1.57
2023-02-28T00:47:47.647Z,1.37
2023-02-28T00:48:20.068Z,1.20
2023-02-28T00:48:54.904Z,1.80
2023-02-28T00:49:28.184Z,1.40
2023-02-28T00:50:01.088Z,1.50
2023-02-28T00:50:36.650Z,1.57
2023-02-28T00:51:08.895Z,1.47
2023-02-28T00:51:41.153Z,1.47
2023-02-28T00:52:16.080Z,1.37
2023-02-28T00:52:48.671Z,1.20
2023-02-28T00:53:20.917Z,1.50
2023-02-28T00:53:55.763Z,1.40
2023-02-28T00:54:30.068Z,1.67
2023-02-28T00:55:02.341Z,1.40
2023-02-28T00:55:37.241Z,1.73
2023-02-28T00:56:10.509Z,1.60
2023-02-28T00:56:42.904Z,1.40
2023-02-28T00:57:17.766Z,1.67
2023-02-28T00:57:50.010Z,1.40
2023-02-28T00:58:22.316Z,1.40
2023-02-28T00:58:57.182Z,1.50
2023-02-28T00:59:29.416Z,1.30
2023-02-28T01:00:01.680Z,1.53
2023-02-28T01:00:36.546Z,1.20
2023-02-28T01:01:08.991Z,1.27
2023-02-28T01:01:43.875Z,1.70
2023-02-28T01:02:21.559Z,1.30
2023-02-28T01:02:53.910Z,1.40
2023-02-28T01:03:31.078Z,1.00
2023-02-28T01:04:04.755Z,1.30
2023-02-28T01:04:37.051Z,1.60
2023-02-28T01:05:12.789Z,1.30
2023-02-28T01:05:45.637Z,1.60
2023-02-28T01:06:17.936Z,1.60
2023-02-28T01:06:52.776Z,1.53
2023-02-28T01:07:25.040Z,1.73
2023-02-28T01:07:57.273Z,1.47
2023-02-28T01:08:32.142Z,1.57
2023-02-28T01:09:05.360Z,1.40
2023-02-28T01:09:37.893Z,1.50
2023-02-28T01:10:14.618Z,1.37
2023-02-28T01:10:46.905Z,1.40
2023-02-28T01:11:19.828Z,1.40
2023-02-28T01:11:54.659Z,1.10
2023-02-28T01:12:28.824Z,1.57
2023-02-28T01:13:02.784Z,1.43
2023-02-28T01:13:37.633Z,1.40
2023-02-28T01:14:10.308Z,1.30
2023-02-28T01:14:43.120Z,1.30
2023-02-28T01:15:15.552Z,1.40
2023-02-28T01:15:53.850Z,1.10
2023-02-28T01:16:26.655Z,1.53
2023-02-28T01:16:58.906Z,1.40
2023-02-28T01:17:36.411Z,1.40
2023-02-28T01:18:08.666Z,1.40
2023-02-28T01:18:41.339Z,1.50
2023-02-28T01:19:16.578Z,1.60
2023-02-28T01:19:48.818Z,1.40
2023-02-28T01:20:21.336Z,1.47
2023-02-28T01:20:53.714Z,1.47
2023-02-28T01:21:28.806Z,1.40
2023-02-28T01:22:02.701Z,1.30
2023-02-28T01:22:36.160Z,1.50
2023-02-28T01:23:11.036Z,1.30
2023-02-28T01:23:43.697Z,1.80
2023-02-28T01:24:16.440Z,1.57
2023-02-28T01:24:53.649Z,1.47
2023-02-28T01:25:25.922Z,1.40
2023-02-28T01:25:58.343Z,1.50
2023-02-28T01:26:33.394Z,1.30
2023-02-28T01:27:05.699Z,1.50
2023-02-28T01:27:37.991Z,1.53
2023-02-28T01:28:12.895Z,1.70
2023-02-28T01:28:45.362Z,1.60
2023-02-28T01:29:17.725Z,1.37
2023-02-28T01:29:52.592Z,1.57
2023-02-28T01:30:24.884Z,1.80
2023-02-28T01:30:57.171Z,1.67
2023-02-28T01:31:32.400Z,1.30
2023-02-28T01:32:05.300Z,1.30
2023-02-28T01:32:40.160Z,1.70
2023-02-28T01:33:15.049Z,1.77
2023-02-28T01:33:47.649Z,1.30
2023-02-28T01:34:22.992Z,1.77
2023-02-28T01:34:57.122Z,1.40
2023-02-28T01:35:29.388Z,1.60
2023-02-28T01:36:04.706Z,1.80
2023-02-28T01:36:37.539Z,1.70
2023-02-28T01:37:09.812Z,1.60
2023-02-28T01:37:44.649Z,1.70
2023-02-28T01:38:22.485Z,1.60
2023-02-28T01:38:55.472Z,1.50
2023-02-28T01:39:30.491Z,1.60
2023-02-28T01:40:02.821Z,1.43
2023-02-28T01:40:35.053Z,1.20
2023-02-28T01:41:10.674Z,1.60
2023-02-28T01:41:42.952Z,1.30
2023-02-28T01:42:15.202Z,1.50
2023-02-28T01:42:50.044Z,1.43
2023-02-28T01:43:25.333Z,1.67
2023-02-28T01:44:00.669Z,1.23
2023-02-28T01:45:01.423Z,1.40
2023-02-28T01:45:35.860Z,1.50
2023-02-28T01:46:09.026Z,1.40
2023-02-28T01:46:43.944Z,1.83
2023-02-28T01:47:16.413Z,1.70
2023-02-28T01:47:52.659Z,1.40
2023-02-28T01:48:31.477Z,1.60
2023-02-28T01:49:07.882Z,1.20
2023-02-28T01:49:40.809Z,1.43
2023-02-28T01:50:17.877Z,1.57
2023-02-28T01:50:51.129Z,1.47
2023-02-28T01:51:28.249Z,1.50
2023-02-28T01:52:03.269Z,1.70
2023-02-28T01:52:35.668Z,1.63
2023-02-28T01:53:10.225Z,1.40
2023-02-28T01:53:48.138Z,1.50
2023-02-28T01:54:23.435Z,1.57
2023-02-28T01:54:57.178Z,1.50
2023-02-28T01:55:32.323Z,1.47
2023-02-28T01:56:05.928Z,1.57
2023-02-28T01:56:38.304Z,1.30
2023-02-28T01:57:16.399Z,1.50
2023-02-28T01:57:51.388Z,1.80
2023-02-28T01:58:23.863Z,1.70
2023-02-28T01:58:59.281Z,1.60
2023-02-28T01:59:35.614Z,1.40
2023-02-28T02:00:15.449Z,1.60
2023-02-28T02:00:55.232Z,1.73
2023-02-28T02:01:29.164Z,1.43
2023-02-28T02:02:02.017Z,1.30
2023-02-28T02:02:37.653Z,1.30
2023-02-28T02:03:15.671Z,1.30
2023-02-28T02:03:49.671Z,1.67
2023-02-28T02:04:25.942Z,1.30
2023-02-28T02:05:02.848Z,1.83
2023-02-28T02:05:35.648Z,1.40
2023-02-28T02:06:10.654Z,1.43
2023-02-28T02:06:45.579Z,1.77
2023-02-28T02:07:17.981Z,1.30
2023-02-28T02:07:56.557Z,1.50
2023-02-28T02:08:30.651Z,1.40
2023-02-28T02:09:03.629Z,1.70
2023-02-28T02:09:38.478Z,1.60
2023-02-28T02:10:16.015Z,1.50
2023-02-28T02:10:52.277Z,1.40
2023-02-28T02:11:30.995Z,1.47
2023-02-28T02:12:10.866Z,1.67
2023-02-28T02:12:58.865Z,1.40
2023-02-28T02:13:56.313Z,1.50
2023-02-28T02:14:48.089Z,1.50
2023-02-28T02:15:26.491Z,1.37
2023-02-28T02:16:04.201Z,1.63
2023-02-28T02:16:43.127Z,1.30
2023-02-28T02:17:25.220Z,1.63
2023-02-28T02:17:59.625Z,1.53
2023-02-28T02:18:39.020Z,1.40
2023-02-28T02:19:30.210Z,1.37
2023-02-28T02:20:24.016Z,1.70
2023-02-28T02:21:27.115Z,1.30
2023-02-28T02:22:27.422Z,1.50
2023-02-28T02:23:31.543Z,1.33
2023-02-28T02:24:23.900Z,1.37
2023-02-28T02:25:27.859Z,1.70
2023-02-28T02:26:13.304Z,1.60
2023-02-28T02:27:06.855Z,1.70
2023-02-28T02:27:54.100Z,1.60
2023-02-28T02:29:03.972Z,1.70
2023-02-28T02:30:07.765Z,1.80
2023-02-28T02:31:14.160Z,1.80
2023-02-28T02:32:13.746Z,1.50
2023-02-28T02:33:05.573Z,1.20
2023-02-28T02:34:19.508Z,1.47
2023-02-28T02:35:04.119Z,1.93
2023-02-28T02:35:41.008Z,1.90
2023-02-28T02:36:18.310Z,1.57
2023-02-28T02:36:53.375Z,1.47
2023-02-28T02:37:30.079Z,1.53
2023-02-28T02:38:12.136Z,1.50
2023-02-28T02:38:50.453Z,1.70
2023-02-28T02:39:28.924Z,1.53
2023-02-28T02:40:06.250Z,1.60
2023-02-28T02:40:47.577Z,1.90
2023-02-28T02:41:24.886Z,1.40
2023-02-28T02:42:01.516Z,1.23
2023-02-28T02:42:53.437Z,1.83
2023-02-28T02:43:31.435Z,1.67
2023-02-28T02:44:07.157Z,1.60
2023-02-28T02:44:46.560Z,1.70
2023-02-28T02:45:22.579Z,1.73
2023-02-28T02:45:57.232Z,1.90
2023-02-28T02:46:35.185Z,1.50
2023-02-28T02:47:10.915Z,1.80
2023-02-28T02:47:45.096Z,1.80
2023-02-28T02:48:22.898Z,1.60
2023-02-28T02:48:57.333Z,1.43
2023-02-28T02:49:32.783Z,1.50
2023-02-28T02:50:15.154Z,1.73
2023-02-28T02:50:50.425Z,1.60
2023-02-28T02:51:23.902Z,1.43
2023-02-28T02:51:59.505Z,1.60
2023-02-28T02:52:36.650Z,1.80
2023-02-28T02:53:11.130Z,1.60
2023-02-28T02:53:50.547Z,1.90
2023-02-28T02:54:29.849Z,1.67
2023-02-28T02:55:04.014Z,1.60
2023-02-28T02:55:42.720Z,1.57
2023-02-28T02:56:15.632Z,1.80
2023-02-28T02:56:49.705Z,1.60
2023-02-28T02:57:25.725Z,1.67
2023-02-28T02:58:03.002Z,1.70
2023-02-28T02:58:43.066Z,1.57
2023-02-28T02:59:22.529Z,1.70
2023-02-28T02:59:59.067Z,1.60
2023-02-28T03:00:34.066Z,1.47
2023-02-28T03:01:06.541Z,1.57
2023-02-28T03:01:42.245Z,1.93
2023-02-28T03:02:16.017Z,1.50
2023-02-28T03:02:49.259Z,1.67
2023-02-28T03:03:30.144Z,1.40
2023-02-28T03:04:04.451Z,1.43
2023-02-28T03:04:42.094Z,1.50
2023-02-28T03:05:23.376Z,1.53
2023-02-28T03:05:56.950Z,1.53
2023-02-28T03:06:29.283Z,1.53
2023-02-28T03:07:04.241Z,1.63
2023-02-28T03:07:36.552Z,1.90
2023-02-28T03:08:08.808Z,1.90
2023-02-28T03:08:43.682Z,1.37
2023-02-28T03:09:15.921Z,1.43
2023-02-28T03:09:52.970Z,1.80
2023-02-28T03:10:47.292Z,2.10
2023-02-28T03:11:22.889Z,1.80
2023-02-28T03:11:57.218Z,1.80
2023-02-28T03:12:36.781Z,1.60
2023-02-28T03:13:21.464Z,1.90
2023-02-28T03:14:00.735Z,1.80
2023-02-28T03:14:47.671Z,1.40
2023-02-28T03:15:26.065Z,2.00
2023-02-28T03:16:19.237Z,1.60
2023-02-28T03:17:04.169Z,1.70
2023-02-28T03:17:54.896Z,1.80
2023-02-28T03:18:32.336Z,1.47
2023-02-28T03:19:17.085Z,1.60
2023-02-28T03:19:55.124Z,1.93
2023-02-28T03:20:38.122Z,1.90
2023-02-28T03:21:18.758Z,1.37
2023-02-28T03:21:58.474Z,1.50
2023-02-28T03:22:53.490Z,2.10
2023-02-28T03:23:31.279Z,1.77
2023-02-28T03:24:09.475Z,1.67
2023-02-28T03:24:46.427Z,1.60
2023-02-28T03:25:28.888Z,1.80
2023-02-28T03:26:08.170Z,2.00
2023-02-28T03:26:43.265Z,1.73
2023-02-28T03:27:18.731Z,1.87
2023-02-28T03:27:59.365Z,1.70
2023-02-28T03:28:38.271Z,2.10
2023-02-28T03:29:18.352Z,1.60
2023-02-28T03:29:53.470Z,1.97
2023-02-28T03:30:31.771Z,2.07
2023-02-28T03:31:10.246Z,2.10
2023-02-28T03:31:46.223Z,2.10
2023-02-28T03:32:26.006Z,2.30
2023-02-28T03:33:00.100Z,1.70
2023-02-28T03:33:36.005Z,1.87
2023-02-28T03:34:13.142Z,1.80
2023-02-28T03:34:49.479Z,1.70
2023-02-28T03:35:24.863Z,2.20
2023-02-28T03:36:05.552Z,1.60
2023-02-28T03:36:45.023Z,1.77
2023-02-28T03:37:21.402Z,1.80
2023-02-28T03:37:59.483Z,2.00
2023-02-28T03:38:35.988Z,1.87
2023-02-28T03:39:09.900Z,2.00
2023-02-28T03:39:47.876Z,1.97
2023-02-28T03:40:23.260Z,2.10
2023-02-28T03:41:00.967Z,1.70
2023-02-28T03:41:40.033Z,2.10
2023-02-28T03:42:15.231Z,2.10
2023-02-28T03:42:49.727Z,1.90
2023-02-28T03:43:29.013Z,1.80
2023-02-28T03:44:05.268Z,2.10
2023-02-28T03:44:41.245Z,1.80
2023-02-28T03:45:19.031Z,2.00
2023-02-28T03:45:52.482Z,2.00
2023-02-28T03:46:26.488Z,1.67
2023-02-28T03:47:03.699Z,2.10
2023-02-28T03:47:39.081Z,1.80
2023-02-28T03:48:14.702Z,2.00
2023-02-28T03:48:53.245Z,1.63
2023-02-28T03:49:28.201Z,2.03
2023-02-28T03:50:04.304Z,2.00
2023-02-28T03:50:42.153Z,2.23
2023-02-28T03:51:19.106Z,1.90
2023-02-28T03:51:51.973Z,2.00
2023-02-28T03:52:30.997Z,2.23
2023-02-28T03:53:12.501Z,2.00
2023-02-28T03:53:47.222Z,1.80
2023-02-28T03:54:25.267Z,1.90
2023-02-28T03:55:01.700Z,2.07
2023-02-28T03:55:39.604Z,2.37
2023-02-28T03:56:18.919Z,2.13
2023-02-28T03:56:54.216Z,2.40
2023-02-28T03:57:29.190Z,2.00
2023-02-28T03:58:09.144Z,2.27
2023-02-28T03:58:44.366Z,2.10
2023-02-28T03:59:23.302Z,1.97
2023-02-28T03:59:58.115Z,2.03
2023-02-28T04:00:35.822Z,1.77
2023-02-28T04:01:10.598Z,1.87
2023-02-28T04:01:44.903Z,2.20
2023-02-28T04:02:19.828Z,1.73
2023-02-28T04:02:54.153Z,1.80
2023-02-28T04:03:26.657Z,1.60
2023-02-28T04:04:01.729Z,2.10
2023-02-28T04:04:34.008Z,2.20
2023-02-28T04:05:06.856Z,1.90
2023-02-28T04:05:53.130Z,1.80
2023-02-28T04:06:28.305Z,1.70
2023-02-28T04:07:05.300Z,1.93
2023-02-28T04:07:40.139Z,1.80
2023-02-28T04:08:12.369Z,1.90
2023-02-28T04:08:45.067Z,1.60
2023-02-28T04:09:20.025Z,1.97
2023-02-28T04:09:53.308Z,1.90
2023-02-28T04:10:25.591Z,2.07
2023-02-28T04:11:03.986Z,2.00
2023-02-28T04:11:38.586Z,1.90
2023-02-28T04:12:10.993Z,1.80
2023-02-28T04:12:45.849Z,2.00
2023-02-28T04:13:18.094Z,2.13
2023-02-28T04:13:50.415Z,2.50
2023-02-28T04:14:25.477Z,2.00
2023-02-28T04:14:57.727Z,1.93
2023-02-28T04:15:30.004Z,1.80
2023-02-28T04:16:18.785Z,1.93
2023-02-28T04:16:56.945Z,2.03
2023-02-28T04:17:31.806Z,2.20
2023-02-28T04:18:04.177Z,2.17
2023-02-28T04:18:36.509Z,2.10
2023-02-28T04:19:12.728Z,2.20
2023-02-28T04:19:45.240Z,2.30
2023-02-28T04:20:17.856Z,2.10
2023-02-28T04:20:52.744Z,1.80
2023-02-28T04:21:28.120Z,1.93
2023-02-28T04:22:03.033Z,1.97
2023-02-28T04:22:35.256Z,1.93
2023-02-28T04:23:07.557Z,2.03
2023-02-28T04:23:42.509Z,2.10
2023-02-28T04:24:17.502Z,2.60
2023-02-28T04:24:52.369Z,2.50
2023-02-28T04:25:24.624Z,1.87
2023-02-28T04:25:57.073Z,1.90
2023-02-28T04:26:31.026Z,2.23
2023-02-28T04:27:06.673Z,2.30
2023-02-28T04:27:38.968Z,2.27
2023-02-28T04:28:11.215Z,2.10
2023-02-28T04:28:46.078Z,2.00
2023-02-28T04:29:21.434Z,2.03
2023-02-28T04:29:53.683Z,2.10
2023-02-28T04:30:28.538Z,2.40
2023-02-28T04:31:02.891Z,2.30
2023-02-28T04:31:35.434Z,2.27
2023-02-28T04:32:10.433Z,2.47
2023-02-28T04:32:42.770Z,2.40
2023-02-28T04:33:15.066Z,2.47
2023-02-28T04:33:49.959Z,2.70
2023-02-28T04:34:22.697Z,2.67
2023-02-28T04:34:54.976Z,2.43
2023-02-28T04:35:29.847Z,1.80
2023-02-28T04:36:03.837Z,5.73
2023-02-28T04:36:38.696Z,5.23
2023-02-28T04:37:14.419Z,3.80
2023-02-28T04:37:46.797Z,5.70
2023-02-28T04:38:19.054Z,4.03
2023-02-28T04:38:53.979Z,3.13
2023-02-28T04:39:26.270Z,2.17
2023-02-28T04:39:58.507Z,2.43
2023-02-28T04:40:33.366Z,2.73
2023-02-28T04:41:06.321Z,2.40
2023-02-28T04:41:38.763Z,2.33
2023-02-28T04:42:14.472Z,2.50
2023-02-28T04:42:46.719Z,1.83
2023-02-28T04:43:18.983Z,1.80
2023-02-28T04:43:54.988Z,2.57
2023-02-28T04:44:27.261Z,2.10
2023-02-28T04:44:59.483Z,2.77
2023-02-28T04:45:35.144Z,2.10
2023-02-28T04:46:07.863Z,2.33
2023-02-28T04:46:40.294Z,2.50
2023-02-28T04:47:15.180Z,2.53
2023-02-28T04:47:47.426Z,2.40
2023-02-28T04:48:22.154Z,2.10
2023-02-28T04:48:57.347Z,2.47
2023-02-28T04:49:29.563Z,3.10
2023-02-28T04:50:01.805Z,3.70
2023-02-28T04:50:36.673Z,2.40
2023-02-28T04:51:10.920Z,2.37
2023-02-28T04:51:45.819Z,2.37
2023-02-28T04:52:20.812Z,2.10
2023-02-28T04:52:53.042Z,2.10
2023-02-28T04:53:25.402Z,2.30
2023-02-28T04:54:00.340Z,1.93
2023-02-28T04:54:32.576Z,2.60
2023-02-28T04:55:06.640Z,2.67
2023-02-28T04:55:41.958Z,2.60
2023-02-28T04:56:15.906Z,2.50
2023-02-28T04:56:50.902Z,2.47
2023-02-28T04:57:25.835Z,2.37
2023-02-28T04:57:58.937Z,2.33
2023-02-28T04:58:31.582Z,2.37
2023-02-28T04:59:06.545Z,2.40
2023-02-28T04:59:38.783Z,2.07
2023-02-28T05:00:12.718Z,2.37
2023-02-28T05:00:47.584Z,2.63
2023-02-28T05:01:23.698Z,2.50
2023-02-28T05:01:55.969Z,2.20
2023-02-28T05:02:30.892Z,2.17
2023-02-28T05:03:03.166Z,2.30
2023-02-28T05:03:35.463Z,2.07
2023-02-28T05:04:10.577Z,2.60
2023-02-28T05:04:42.853Z,2.40
2023-02-28T05:05:19.225Z,2.50
2023-02-28T05:05:54.067Z,2.13
2023-02-28T05:06:28.345Z,2.17
2023-02-28T05:07:04.285Z,2.43
2023-02-28T05:07:39.285Z,2.57
2023-02-28T05:08:12.531Z,2.17
2023-02-28T05:08:45.026Z,2.20
2023-02-28T05:09:19.869Z,2.50
2023-02-28T05:09:52.095Z,2.30
2023-02-28T05:10:24.428Z,2.70
2023-02-28T05:10:56.652Z,2.33
2023-02-28T05:11:36.045Z,2.43
2023-02-28T05:12:10.126Z,2.37
2023-02-28T05:12:42.434Z,2.37
2023-02-28T05:13:17.285Z,2.90
2023-02-28T05:13:49.905Z,2.23
2023-02-28T05:14:22.467Z,2.33
2023-02-28T05:14:57.359Z,2.30
2023-02-28T05:15:29.635Z,2.57
2023-02-28T05:16:01.917Z,2.50
2023-02-28T05:16:37.019Z,2.23
2023-02-28T05:17:10.178Z,2.60
2023-02-28T05:17:42.547Z,2.60
2023-02-28T05:18:17.460Z,2.30
2023-02-28T05:18:49.859Z,2.80
2023-02-28T05:19:25.130Z,2.27
2023-02-28T05:20:09.768Z,2.37
2023-02-28T05:20:50.120Z,2.27
2023-02-28T05:21:28.880Z,2.40
2023-02-28T05:22:03.921Z,2.90
2023-02-28T05:22:38.769Z,2.37
2023-02-28T05:23:12.918Z,2.43
2023-02-28T05:23:46.422Z,2.63
2023-02-28T05:24:24.573Z,2.43
2023-02-28T05:24:56.804Z,3.00
2023-02-28T05:25:30.229Z,2.60
2023-02-28T05:26:02.459Z,2.30
2023-02-28T05:26:38.773Z,2.67
2023-02-28T05:27:11.569Z,2.50
2023-02-28T05:27:43.816Z,2.50
2023-02-28T05:28:18.748Z,2.20
2023-02-28T05:28:51.080Z,2.47
2023-02-28T05:29:23.518Z,2.70
2023-02-28T05:29:58.368Z,2.43
2023-02-28T05:30:31.120Z,2.10
2023-02-28T05:31:03.388Z,2.20
2023-02-28T05:31:38.537Z,2.53
2023-02-28T05:32:12.083Z,2.30
2023-02-28T05:32:44.394Z,2.30
2023-02-28T05:33:19.242Z,2.40
2023-02-28T05:33:52.520Z,2.73
2023-02-28T05:34:27.409Z,2.53
2023-02-28T05:34:59.640Z,2.60
2023-02-28T05:35:31.892Z,2.70
2023-02-28T05:36:07.401Z,1.87
2023-02-28T05:36:40.019Z,2.20
2023-02-28T05:37:16.862Z,2.20
2023-02-28T05:37:51.720Z,2.80
2023-02-28T05:38:24.352Z,2.50
2023-02-28T05:38:56.597Z,2.60
2023-02-28T05:39:31.429Z,2.60
2023-02-28T05:40:07.076Z,2.40
2023-02-28T05:40:40.355Z,2.80
2023-02-28T05:41:15.400Z,2.40
2023-02-28T05:41:47.660Z,2.53
2023-02-28T05:42:19.912Z,2.83
2023-02-28T05:42:54.944Z,2.50
2023-02-28T05:43:27.234Z,2.90
2023-02-28T05:44:00.776Z,2.33
2023-02-28T05:44:35.658Z,2.27
2023-02-28T05:45:09.791Z,2.50
2023-02-28T05:45:42.061Z,3.03
2023-02-28T05:46:17.101Z,2.70
2023-02-28T05:46:49.343Z,2.53
2023-02-28T05:47:21.670Z,2.80
2023-02-28T05:47:57.724Z,2.50
2023-02-28T05:48:29.964Z,2.60
2023-02-28T05:49:02.683Z,2.83
2023-02-28T05:49:37.591Z,2.40
2023-02-28T05:50:11.719Z,2.30
2023-02-28T05:50:47.214Z,2.87
2023-02-28T05:51:19.488Z,2.27
2023-02-28T05:51:54.594Z,2.40
2023-02-28T05:52:31.030Z,2.83
2023-02-28T05:53:03.409Z,2.80
2023-02-28T05:53:38.744Z,2.63
2023-02-28T05:54:13.509Z,2.47
2023-02-28T05:54:47.584Z,2.23
2023-02-28T05:55:22.477Z,3.10
2023-02-28T05:55:54.858Z,2.60
2023-02-28T05:56:27.128Z,2.33
2023-02-28T05:57:01.964Z,2.70
2023-02-28T05:57:34.205Z,2.50
2023-02-28T05:58:06.461Z,2.80
2023-02-28T05:58:41.288Z,2.60
2023-02-28T05:59:13.867Z,2.33
2023-02-28T05:59:48.679Z,2.90
2023-02-28T06:00:21.621Z,2.70
2023-02-28T06:00:53.878Z,2.33
2023-02-28T06:01:37.019Z,3.03
2023-02-28T06:02:13.796Z,2.43
2023-02-28T06:02:46.133Z,2.67
2023-02-28T06:03:21.024Z,2.60
2023-02-28T06:03:53.304Z,3.03
2023-02-28T06:04:31.777Z,3.10
2023-02-28T06:05:07.294Z,2.60
2023-02-28T06:05:39.741Z,2.50
2023-02-28T06:06:11.978Z,2.80
2023-02-28T06:06:46.821Z,2.63
2023-02-28T06:07:19.046Z,2.80
2023-02-28T06:07:53.886Z,2.70
2023-02-28T06:08:28.770Z,2.97
2023-02-28T06:09:01.756Z,2.70
2023-02-28T06:09:36.617Z,2.87
2023-02-28T06:10:10.562Z,2.77
2023-02-28T06:10:42.853Z,2.67
2023-02-28T06:11:17.780Z,2.73
2023-02-28T06:11:50.053Z,2.60
2023-02-28T06:12:22.290Z,2.60
2023-02-28T06:12:57.136Z,2.50
2023-02-28T06:13:29.400Z,3.33
2023-02-28T06:14:02.782Z,2.63
2023-02-28T06:14:38.191Z,3.17
2023-02-28T06:15:13.743Z,2.60
2023-02-28T06:15:45.973Z,2.60
2023-02-28T06:16:20.849Z,3.13
2023-02-28T06:16:53.496Z,2.70
2023-02-28T06:17:25.833Z,3.07
2023-02-28T06:18:00.825Z,2.70
2023-02-28T06:18:33.424Z,2.80
2023-02-28T06:19:08.351Z,2.70
2023-02-28T06:19:42.338Z,2.57
2023-02-28T06:20:15.272Z,2.70
2023-02-28T06:20:56.882Z,2.33
2023-02-28T06:21:29.961Z,2.97
2023-02-28T06:22:05.569Z,2.50
2023-02-28T06:22:38.246Z,2.63
2023-02-28T06:23:13.104Z,2.83
2023-02-28T06:23:45.460Z,2.60
2023-02-28T06:24:20.336Z,2.70
2023-02-28T06:24:53.817Z,2.80
2023-02-28T06:25:26.101Z,3.10
2023-02-28T06:26:01.556Z,3.07
2023-02-28T06:26:33.954Z,2.73
2023-02-28T06:27:08.907Z,3.10
2023-02-28T06:27:41.161Z,2.83
2023-02-28T06:28:13.413Z,2.80
2023-02-28T06:28:48.295Z,2.30
2023-02-28T06:29:20.569Z,2.80
2023-02-28T06:29:56.180Z,3.17
2023-02-28T06:30:34.848Z,2.60
2023-02-28T06:31:08.870Z,2.67
2023-02-28T06:31:41.208Z,2.70
2023-02-28T06:32:16.176Z,2.90
2023-02-28T06:32:50.610Z,2.80
2023-02-28T06:33:22.869Z,2.93
2023-02-28T06:33:57.702Z,2.73
2023-02-28T06:34:30.018Z,2.70
2023-02-28T06:35:04.843Z,2.47
2023-02-28T06:35:37.149Z,2.40
2023-02-28T06:36:10.969Z,2.60
2023-02-28T06:36:46.373Z,3.00
2023-02-28T06:37:18.819Z,2.53
2023-02-28T06:37:51.064Z,2.50
2023-02-28T06:38:25.978Z,3.00
2023-02-28T06:39:00.805Z,2.53
2023-02-28T06:39:33.146Z,2.97
2023-02-28T06:40:08.020Z,2.33
2023-02-28T06:40:42.857Z,3.03
2023-02-28T06:41:15.121Z,2.83
2023-02-28T06:41:55.477Z,2.93
2023-02-28T06:42:32.027Z,3.30
2023-02-28T06:43:04.457Z,3.10
2023-02-28T06:43:38.787Z,2.97
2023-02-28T06:44:16.340Z,2.87
2023-02-28T06:44:48.627Z,3.00
2023-02-28T06:45:21.068Z,2.80
2023-02-28T06:45:58.249Z,2.70
2023-02-28T06:46:30.620Z,2.60
2023-02-28T06:47:04.299Z,3.17
2023-02-28T06:47:39.366Z,2.50
2023-02-28T06:48:11.706Z,2.97
2023-02-28T06:48:48.178Z,3.00
2023-02-28T06:49:20.464Z,3.57
2023-02-28T06:49:55.338Z,3.23
2023-02-28T06:50:29.521Z,3.40
2023-02-28T06:51:09.577Z,3.30
2023-02-28T06:51:44.363Z,3.60
2023-02-28T06:52:19.618Z,3.67
2023-02-28T06:52:55.074Z,3.77
2023-02-28T06:53:32.545Z,3.17
2023-02-28T06:54:05.567Z,2.90
2023-02-28T06:54:40.691Z,3.00
2023-02-28T06:55:12.925Z,2.93
2023-02-28T06:55:45.192Z,3.10
2023-02-28T06:56:21.933Z,2.93
2023-02-28T06:56:55.427Z,3.10
2023-02-28T06:57:31.974Z,3.30
2023-02-28T06:58:04.198Z,2.73
2023-02-28T06:58:36.752Z,3.10
2023-02-28T06:59:11.640Z,2.70
2023-02-28T06:59:43.872Z,3.10
2023-02-28T07:00:19.734Z,3.10
2023-02-28T07:00:52.569Z,3.17
2023-02-28T07:01:29.426Z,3.30
2023-02-28T07:02:03.184Z,3.40
2023-02-28T07:02:35.561Z,3.37
2023-02-28T07:03:10.408Z,3.67
2023-02-28T07:03:42.658Z,3.00
2023-02-28T07:04:15.015Z,3.60
2023-02-28T07:04:49.933Z,3.10
2023-02-28T07:05:22.173Z,3.83
2023-02-28T07:05:57.488Z,3.30
2023-02-28T07:06:29.748Z,3.23
2023-02-28T07:07:04.855Z,3.10
2023-02-28T07:07:39.592Z,3.20
2023-02-28T07:08:11.880Z,3.20
2023-02-28T07:08:49.416Z,3.20
2023-02-28T07:09:21.674Z,3.63
2023-02-28T07:09:53.923Z,3.17
2023-02-28T07:10:28.789Z,3.33
2023-02-28T07:11:01.149Z,3.23
2023-02-28T07:11:36.161Z,2.93
2023-02-28T07:12:08.497Z,2.73
2023-02-28T07:12:40.785Z,2.93
2023-02-28T07:13:15.633Z,2.60
2023-02-28T07:13:48.722Z,3.00
2023-02-28T07:14:23.568Z,2.90
2023-02-28T07:14:56.983Z,2.87
2023-02-28T07:15:29.221Z,3.03
2023-02-28T07:16:05.650Z,2.60
2023-02-28T07:16:37.959Z,2.67
2023-02-28T07:17:13.562Z,3.43
2023-02-28T07:17:45.795Z,2.77
2023-02-28T07:18:18.022Z,3.07
2023-02-28T07:18:53.165Z,2.90
2023-02-28T07:19:25.385Z,3.00
2023-02-28T07:20:00.212Z,2.53
2023-02-28T07:20:32.552Z,3.07
2023-02-28T07:21:05.877Z,3.00
2023-02-28T07:21:40.737Z,3.57
2023-02-28T07:22:15.467Z,2.90
2023-02-28T07:22:48.891Z,2.80
2023-02-28T07:23:23.858Z,3.30
2023-02-28T07:23:58.800Z,2.70
2023-02-28T07:24:31.419Z,3.07
2023-02-28T07:25:06.409Z,2.77
2023-02-28T07:25:38.789Z,3.07
2023-02-28T07:26:16.773Z,3.10
2023-02-28T07:26:49.045Z,3.00
2023-02-28T07:27:27.436Z,3.30
2023-02-28T07:28:00.303Z,2.93
2023-02-28T07:28:35.169Z,2.93
2023-02-28T07:29:07.476Z,2.83
2023-02-28T07:29:42.321Z,3.50
2023-02-28T07:30:15.387Z,3.00
2023-02-28T07:30:47.640Z,2.90
2023-02-28T07:31:23.020Z,3.07
2023-02-28T07:31:55.269Z,2.67
2023-02-28T07:32:30.129Z,2.70
2023-02-28T07:33:02.424Z,3.00
2023-02-28T07:33:37.814Z,2.97
2023-02-28T07:34:10.100Z,3.40
2023-02-28T07:34:42.387Z,3.20
2023-02-28T07:35:18.107Z,2.90
2023-02-28T07:35:50.392Z,3.13
2023-02-28T07:36:25.338Z,3.40
2023-02-28T07:36:57.603Z,3.17
2023-02-28T07:37:32.642Z,3.03
2023-02-28T07:38:08.606Z,2.97
2023-02-28T07:38:40.913Z,3.23
2023-02-28T07:39:18.429Z,2.73
2023-02-28T07:39:50.684Z,2.63
2023-02-28T07:40:25.518Z,2.90
2023-02-28T07:40:57.791Z,2.40
2023-02-28T07:41:35.077Z,2.83
2023-02-28T07:42:10.504Z,2.70
2023-02-28T07:42:43.368Z,2.80
2023-02-28T07:43:18.228Z,3.33
2023-02-28T07:43:50.558Z,3.23
2023-02-28T07:44:27.096Z,2.90
2023-02-28T07:45:00.033Z,3.00
2023-02-28T07:45:35.603Z,3.10
2023-02-28T07:46:10.414Z,3.00
2023-02-28T07:46:42.680Z,3.10
2023-02-28T07:47:17.509Z,3.00
2023-02-28T07:47:49.785Z,2.93
2023-02-28T07:48:22.060Z,2.83
2023-02-28T07:49:00.479Z,3.23
2023-02-28T07:49:33.210Z,3.20
2023-02-28T07:50:09.028Z,3.13
2023-02-28T07:50:41.247Z,3.37